Thunder radar more information blitzortung!


Radar de pluja more information rain snow radar


Visita la nostra xarxa de llocs de meteo:

Template documentation
and downloads

And another site



No particular awareness of the weather is required.    There are no Weather-warnings

Pagina Historial Weather Underground text

Diari Resum January 17, 2018 Unitats:  Tant    Imperial   Mètric
« Previous Dia
SegĂźent Dia »
Diari Setmana Mensual Anual Personalitzada
  Maxima: Minima: Media:
Temperatura: TemperatureC °F /  -17.8 °C 5.2 °F /  -14.9 °C 11.5 °F /  -11.4 °C
Punt de rosada: DewpointC °F /  -17.8 °C -1.8 °F /  -18.8 °C 1.6 °F /  -16.9 °C
Humitat: Humidity % 39 % 50 %
Wind Speed: WindSpeedKMH mph /  0 km/h - 7.6 mph /  12.2 km/h
RĂ fegues de vent: WindSpeedGustKMH mph /  0 km/h - -
Vent:- - WSW
Pression baro: PressurehPa in /  0 hPa 1015.8 in /  34395 hPa -
Precipitacions: 0.0 in /  0 mm    
Historical Graphs
 
 
Dades de taula per January 17, 2018
Temps Temperatura Punt de rosada Pression baro Vent Wind Speed RĂ fegues de vent Humitat Rainfall Rate (Hourly)
TemperatureC °F /  -17.8 °C DewpointC °F /  -17.8 °C PressurehPa in /  0 hPa Calm     Humidity % HourlyPrecipMM in /  0 mm
00:00 12.1 °F /  -11.1 °C 5.3 °F /  -14.8 °C 1015.8 in /  34395 hPa WSW 8.0 mph /  12.9 km/h 11.3 mph /  18.2 km/h 63 % 0.0 in /  0 mm
00:10 12.0 °F /  -11.1 °C 5.2 °F /  -14.9 °C 1015.8 in /  34395 hPa West 4.8 mph /  7.7 km/h 12.9 mph /  20.8 km/h 63 % 0.0 in /  0 mm
00:16 12.4 °F /  -10.9 °C 5.3 °F /  -14.8 °C 1016.8 in /  34428.8 hPa West 27.8 mph /  44.7 km/h 27.8 mph /  44.7 km/h 62 % 0.0 in /  0 mm
00:20 11.9 °F /  -11.2 °C 5.1 °F /  -14.9 °C 1015.8 in /  34395 hPa WNW 4.8 mph /  7.7 km/h 9.7 mph /  15.6 km/h 63 % 0.0 in /  0 mm
00:30 11.8 °F /  -11.2 °C 5.0 °F /  -15 °C 1015.8 in /  34395 hPa West 9.7 mph /  15.6 km/h 14.5 mph /  23.3 km/h 63 % 0.0 in /  0 mm
00:36 12.4 °F /  -10.9 °C 5.3 °F /  -14.8 °C 1015.8 in /  34395 hPa WSW 18.5 mph /  29.8 km/h 18.5 mph /  29.8 km/h 62 % 0.0 in /  0 mm
00:40 11.8 °F /  -11.2 °C 5.0 °F /  -15 °C 1016.8 in /  34428.8 hPa WNW 9.7 mph /  15.6 km/h 16.1 mph /  25.9 km/h 63 % 0.0 in /  0 mm
00:45 12.3 °F /  -10.9 °C 5.2 °F /  -14.9 °C 1015.8 in /  34395 hPa WSW 20.4 mph /  32.8 km/h 20.4 mph /  32.8 km/h 62 % 0.0 in /  0 mm
00:50 12.2 °F /  -11 °C 5.1 °F /  -14.9 °C 1016.8 in /  34428.8 hPa WSW 16.7 mph /  26.9 km/h 16.7 mph /  26.9 km/h 62 % 0.0 in /  0 mm
01:00 11.8 °F /  -11.2 °C 4.7 °F /  -15.2 °C 1015.8 in /  34395 hPa WSW 11.3 mph /  18.2 km/h 12.9 mph /  20.8 km/h 62 % 0.0 in /  0 mm
01:02 12.2 °F /  -11 °C 5.3 °F /  -14.8 °C 1016.8 in /  34428.8 hPa WSW 27.8 mph /  44.7 km/h 27.8 mph /  44.7 km/h 63 % 0.0 in /  0 mm
01:10 11.8 °F /  -11.2 °C 4.7 °F /  -15.2 °C 1015.8 in /  34395 hPa WSW 9.7 mph /  15.6 km/h 9.7 mph /  15.6 km/h 62 % 0.0 in /  0 mm
01:20 11.9 °F /  -11.2 °C 4.8 °F /  -15.1 °C 1015.8 in /  34395 hPa WSW 14.5 mph /  23.3 km/h 27.4 mph /  44.1 km/h 62 % 0.0 in /  0 mm
01:24 12.2 °F /  -11 °C 5.3 °F /  -14.8 °C 1016.8 in /  34428.8 hPa WNW 13.0 mph /  20.9 km/h 13.0 mph /  20.9 km/h 63 % 0.0 in /  0 mm
01:30 11.8 °F /  -11.2 °C 4.5 °F /  -15.3 °C 1015.8 in /  34395 hPa WSW 9.7 mph /  15.6 km/h 24.1 mph /  38.8 km/h 61 % 0.0 in /  0 mm
01:40 11.7 °F /  -11.3 °C 4.4 °F /  -15.3 °C 1015.8 in /  34395 hPa WSW 11.3 mph /  18.2 km/h 17.7 mph /  28.5 km/h 61 % 0.0 in /  0 mm
01:50 11.8 °F /  -11.2 °C 4.5 °F /  -15.3 °C 1015.8 in /  34395 hPa West 12.9 mph /  20.8 km/h 17.7 mph /  28.5 km/h 61 % 0.0 in /  0 mm
02:00 11.8 °F /  -11.2 °C 4.3 °F /  -15.4 °C 1015.8 in /  34395 hPa West 14.5 mph /  23.3 km/h 24.1 mph /  38.8 km/h 60 % 0.0 in /  0 mm
02:10 11.8 °F /  -11.2 °C 4.1 °F /  -15.5 °C 1015.8 in /  34395 hPa West 14.5 mph /  23.3 km/h 17.7 mph /  28.5 km/h 59 % 0.0 in /  0 mm
02:20 11.8 °F /  -11.2 °C 3.8 °F /  -15.7 °C 1016.8 in /  34428.8 hPa WSW 14.5 mph /  23.3 km/h 25.7 mph /  41.4 km/h 58 % 0.0 in /  0 mm
02:30 11.9 °F /  -11.2 °C 3.7 °F /  -15.7 °C 1016.8 in /  34428.8 hPa West 12.9 mph /  20.8 km/h 19.3 mph /  31.1 km/h 57 % 0.0 in /  0 mm
02:40 12.1 °F /  -11.1 °C 3.8 °F /  -15.7 °C 1016.8 in /  34428.8 hPa West 11.3 mph /  18.2 km/h 17.7 mph /  28.5 km/h 57 % 0.0 in /  0 mm
02:50 12.1 °F /  -11.1 °C 3.6 °F /  -15.8 °C 1017.8 in /  34462.7 hPa West 14.5 mph /  23.3 km/h 14.5 mph /  23.3 km/h 56 % 0.0 in /  0 mm
03:00 12.2 °F /  -11 °C 3.7 °F /  -15.7 °C 1017.8 in /  34462.7 hPa West 4.8 mph /  7.7 km/h 17.7 mph /  28.5 km/h 56 % 0.0 in /  0 mm
03:10 12.3 °F /  -10.9 °C 3.5 °F /  -15.8 °C 1017.8 in /  34462.7 hPa WSW 9.7 mph /  15.6 km/h 16.1 mph /  25.9 km/h 55 % 0.0 in /  0 mm
03:20 12.4 °F /  -10.9 °C 3.6 °F /  -15.8 °C 1017.8 in /  34462.7 hPa West 4.8 mph /  7.7 km/h 16.1 mph /  25.9 km/h 55 % 0.0 in /  0 mm
03:25 12.4 °F /  -10.9 °C 3.6 °F /  -15.8 °C 1017.8 in /  34462.7 hPa West 4.8 mph /  7.7 km/h 11.3 mph /  18.2 km/h 55 % 0.0 in /  0 mm
09:25 12.5 °F /  -10.8 °C 3.7 °F /  -15.7 °C 1017.8 in /  34462.7 hPa West 11.1 mph /  17.9 km/h 11.1 mph /  17.9 km/h 55 % 0.0 in /  0 mm
09:32 12.6 °F /  -10.8 °C 3.8 °F /  -15.7 °C 1017.8 in /  34462.7 hPa NNW 9.3 mph /  15 km/h 9.3 mph /  15 km/h 55 % 0.0 in /  0 mm
09:38 12.7 °F /  -10.7 °C 3.9 °F /  -15.6 °C 1017.8 in /  34462.7 hPa SSW 9.3 mph /  15 km/h 9.3 mph /  15 km/h 55 % 0.0 in /  0 mm
09:45 12.8 °F /  -10.7 °C 4.0 °F /  -15.6 °C 1017.8 in /  34462.7 hPa SSW 9.5 mph /  15.3 km/h 9.5 mph /  15.3 km/h 55 % 0.0 in /  0 mm
09:51 12.8 °F /  -10.7 °C 4.0 °F /  -15.6 °C 1017.8 in /  34462.7 hPa WSW 9.3 mph /  15 km/h 9.3 mph /  15 km/h 55 % 0.0 in /  0 mm
10:03 13.0 °F /  -10.6 °C 3.9 °F /  -15.6 °C 1017.8 in /  34462.7 hPa SW 18.5 mph /  29.8 km/h 18.5 mph /  29.8 km/h 54 % 0.0 in /  0 mm
10:11 13.1 °F /  -10.5 °C 4.0 °F /  -15.6 °C 1017.8 in /  34462.7 hPa WNW 20.4 mph /  32.8 km/h 20.4 mph /  32.8 km/h 54 % 0.0 in /  0 mm
10:16 13.1 °F /  -10.5 °C 3.7 °F /  -15.7 °C 1017.8 in /  34462.7 hPa WNW 14.8 mph /  23.8 km/h 14.8 mph /  23.8 km/h 53 % 0.0 in /  0 mm
10:28 13.2 °F /  -10.4 °C 3.6 °F /  -15.8 °C 1018.8 in /  34496.6 hPa WNW 24.1 mph /  38.8 km/h 24.1 mph /  38.8 km/h 52 % 0.0 in /  0 mm
10:40 13.3 °F /  -10.4 °C 3.7 °F /  -15.7 °C 1018.8 in /  34496.6 hPa WSW 16.7 mph /  26.9 km/h 16.7 mph /  26.9 km/h 52 % 0.0 in /  0 mm
11:01 13.7 °F /  -10.2 °C 3.7 °F /  -15.7 °C 1018.8 in /  34496.6 hPa SW 14.8 mph /  23.8 km/h 14.8 mph /  23.8 km/h 51 % 0.0 in /  0 mm
11:08 13.8 °F /  -10.1 °C 3.8 °F /  -15.7 °C 1019.9 in /  34533.8 hPa SW 13.0 mph /  20.9 km/h 13.0 mph /  20.9 km/h 51 % 0.0 in /  0 mm
11:13 14.0 °F /  -10 °C 4.0 °F /  -15.6 °C 1019.9 in /  34533.8 hPa WSW 13.0 mph /  20.9 km/h 13.0 mph /  20.9 km/h 51 % 0.0 in /  0 mm
11:21 14.2 °F /  -9.9 °C 4.2 °F /  -15.4 °C 1018.8 in /  34496.6 hPa WSW 9.3 mph /  15 km/h 9.3 mph /  15 km/h 51 % 0.0 in /  0 mm
11:40 15.1 °F /  -9.4 °C 5.1 °F /  -14.9 °C 1018.8 in /  34496.6 hPa North 5.0 mph /  8 km/h 5.0 mph /  8 km/h 51 % 0.0 in /  0 mm
11:57 15.1 °F /  -9.4 °C 4.7 °F /  -15.2 °C 1019.9 in /  34533.8 hPa WSW 13.0 mph /  20.9 km/h 13.0 mph /  20.9 km/h 50 % 0.0 in /  0 mm
12:03 15.0 °F /  -9.4 °C 4.7 °F /  -15.2 °C 1019.9 in /  34533.8 hPa SW 11.1 mph /  17.9 km/h 11.1 mph /  17.9 km/h 50 % 0.0 in /  0 mm
12:11 14.9 °F /  -9.5 °C 4.3 °F /  -15.4 °C 1019.9 in /  34533.8 hPa SSW 16.7 mph /  26.9 km/h 16.7 mph /  26.9 km/h 49 % 0.0 in /  0 mm
12:25 15.4 °F /  -9.2 °C 4.7 °F /  -15.2 °C 1020.9 in /  34567.7 hPa SSW 6.9 mph /  11.1 km/h 6.9 mph /  11.1 km/h 49 % 0.0 in /  0 mm
13:08 16.2 °F /  -8.8 °C 4.9 °F /  -15.1 °C 1019.9 in /  34533.8 hPa NW 7.4 mph /  11.9 km/h 7.4 mph /  11.9 km/h 47 % 0.0 in /  0 mm
13:15 16.2 °F /  -8.8 °C 4.9 °F /  -15.1 °C 1019.9 in /  34533.8 hPa SW 9.3 mph /  15 km/h 9.3 mph /  15 km/h 47 % 0.0 in /  0 mm
13:27 16.3 °F /  -8.7 °C 4.7 °F /  -15.2 °C 1020.9 in /  34567.7 hPa West 14.8 mph /  23.8 km/h 14.8 mph /  23.8 km/h 46 % 0.0 in /  0 mm
13:32 16.3 °F /  -8.7 °C 4.7 °F /  -15.2 °C 1020.9 in /  34567.7 hPa WSW 7.4 mph /  11.9 km/h 7.4 mph /  11.9 km/h 46 % 0.0 in /  0 mm
13:38 16.3 °F /  -8.7 °C 4.3 °F /  -15.4 °C 1019.9 in /  34533.8 hPa WSW 10.3 mph /  16.6 km/h 10.3 mph /  16.6 km/h 45 % 0.0 in /  0 mm
14:00 16.5 °F /  -8.6 °C 4.2 °F /  -15.4 °C 1019.9 in /  34533.8 hPa SW 9.3 mph /  15 km/h 9.3 mph /  15 km/h 44 % 0.0 in /  0 mm
14:06 16.4 °F /  -8.7 °C 4.1 °F /  -15.5 °C 1019.9 in /  34533.8 hPa West 9.3 mph /  15 km/h 9.3 mph /  15 km/h 44 % 0.0 in /  0 mm
14:14 16.4 °F /  -8.7 °C 4.1 °F /  -15.5 °C 1019.9 in /  34533.8 hPa WSW 9.3 mph /  15 km/h 9.3 mph /  15 km/h 44 % 0.0 in /  0 mm
14:40 16.3 °F /  -8.7 °C 4.0 °F /  -15.6 °C 1020.9 in /  34567.7 hPa West 9.3 mph /  15 km/h 9.3 mph /  15 km/h 44 % 0.0 in /  0 mm
15:00 16.6 °F /  -8.6 °C 4.3 °F /  -15.4 °C 1020.9 in /  34567.7 hPa West 9.3 mph /  15 km/h 9.3 mph /  15 km/h 44 % 0.0 in /  0 mm
15:19 16.3 °F /  -8.7 °C 3.3 °F /  -15.9 °C 1021.9 in /  34601.5 hPa WNW 13.0 mph /  20.9 km/h 13.0 mph /  20.9 km/h 42 % 0.0 in /  0 mm
15:35 16.2 °F /  -8.8 °C 3.3 °F /  -15.9 °C 1021.9 in /  34601.5 hPa WSW 16.7 mph /  26.9 km/h 16.7 mph /  26.9 km/h 42 % 0.0 in /  0 mm
15:41 16.1 °F /  -8.8 °C 2.8 °F /  -16.2 °C 1021.9 in /  34601.5 hPa West 14.8 mph /  23.8 km/h 14.8 mph /  23.8 km/h 41 % 0.0 in /  0 mm
16:05 16.2 °F /  -8.8 °C 3.3 °F /  -15.9 °C 1021.9 in /  34601.5 hPa West 11.1 mph /  17.9 km/h 11.1 mph /  17.9 km/h 42 % 0.0 in /  0 mm
16:22 15.9 °F /  -8.9 °C 2.7 °F /  -16.3 °C 1021.9 in /  34601.5 hPa WSW 9.3 mph /  15 km/h 9.3 mph /  15 km/h 41 % 0.0 in /  0 mm
16:54 15.5 °F /  -9.2 °C 1.9 °F /  -16.7 °C 1022.9 in /  34635.4 hPa WSW 7.4 mph /  11.9 km/h 7.4 mph /  11.9 km/h 40 % 0.0 in /  0 mm
17:00 15.3 °F /  -9.3 °C 1.8 °F /  -16.8 °C 1022.9 in /  34635.4 hPa WSW 3.7 mph /  6 km/h 3.7 mph /  6 km/h 40 % 0.0 in /  0 mm
17:06 15.3 °F /  -9.3 °C 1.8 °F /  -16.8 °C 1022.9 in /  34635.4 hPa WSW 9.3 mph /  15 km/h 9.3 mph /  15 km/h 40 % 0.0 in /  0 mm
17:34 14.1 °F /  -9.9 °C 0.3 °F /  -17.6 °C 1023.9 in /  34669.3 hPa WSW 9.7 mph /  15.6 km/h 9.7 mph /  15.6 km/h 39 % 0.0 in /  0 mm
17:39 14.0 °F /  -10 °C 0.2 °F /  -17.7 °C 1023.9 in /  34669.3 hPa SW 11.1 mph /  17.9 km/h 11.1 mph /  17.9 km/h 39 % 0.0 in /  0 mm
17:45 13.7 °F /  -10.2 °C 0.0 °F /  -17.8 °C 1023.9 in /  34669.3 hPa WSW 7.4 mph /  11.9 km/h 7.4 mph /  11.9 km/h 39 % 0.0 in /  0 mm
17:51 13.6 °F /  -10.2 °C -0.1 °F /  -17.8 °C 1023.9 in /  34669.3 hPa West 14.0 mph /  22.5 km/h 14.0 mph /  22.5 km/h 39 % 0.0 in /  0 mm
18:10 13.2 °F /  -10.4 °C -0.4 °F /  -18 °C 1023.9 in /  34669.3 hPa West 4.7 mph /  7.6 km/h 4.7 mph /  7.6 km/h 39 % 0.0 in /  0 mm
18:41 12.6 °F /  -10.8 °C -0.7 °F /  -18.2 °C 1023.9 in /  34669.3 hPa West 9.5 mph /  15.3 km/h 9.5 mph /  15.3 km/h 40 % 0.0 in /  0 mm
19:00 12.4 °F /  -10.9 °C -0.8 °F /  -18.2 °C 1023.9 in /  34669.3 hPa WSW 5.6 mph /  9 km/h 5.6 mph /  9 km/h 40 % 0.0 in /  0 mm
19:12 12.2 °F /  -11 °C -0.7 °F /  -18.2 °C 1023.9 in /  34669.3 hPa SW 5.8 mph /  9.3 km/h 5.8 mph /  9.3 km/h 41 % 0.0 in /  0 mm
19:19 12.0 °F /  -11.1 °C -0.9 °F /  -18.3 °C 1024.9 in /  34703.1 hPa SW 1.9 mph /  3.1 km/h 1.9 mph /  3.1 km/h 41 % 0.0 in /  0 mm
19:32 11.4 °F /  -11.4 °C -1.4 °F /  -18.6 °C 1024.9 in /  34703.1 hPa WSW 1.9 mph /  3.1 km/h   41 % 0.0 in /  0 mm
19:44 11.0 °F /  -11.7 °C -1.8 °F /  -18.8 °C 1024.9 in /  34703.1 hPa West 3.7 mph /  6 km/h 3.9 mph /  6.3 km/h 41 % 0.0 in /  0 mm
19:57 11.1 °F /  -11.6 °C -1.3 °F /  -18.5 °C 1026.0 in /  34740.4 hPa WSW 6.4 mph /  10.3 km/h 6.4 mph /  10.3 km/h 42 % 0.0 in /  0 mm
20:15 10.5 °F /  -11.9 °C -1.6 °F /  -18.7 °C 1024.9 in /  34703.1 hPa SSW 1.9 mph /  3.1 km/h 1.9 mph /  3.1 km/h 43 % 0.0 in /  0 mm
20:39 10.0 °F /  -12.2 °C -1.4 °F /  -18.6 °C 1026.0 in /  34740.4 hPa Calm     45 % 0.0 in /  0 mm
20:44 10.0 °F /  -12.2 °C -1.4 °F /  -18.6 °C 1026.0 in /  34740.4 hPa Calm     45 % 0.0 in /  0 mm
20:49 10.0 °F /  -12.2 °C -1.1 °F /  -18.4 °C 1024.9 in /  34703.1 hPa Calm     46 % 0.0 in /  0 mm
20:54 10.1 °F /  -12.2 °C -1.0 °F /  -18.3 °C 1024.9 in /  34703.1 hPa West 3.7 mph /  6 km/h 3.7 mph /  6 km/h 46 % 0.0 in /  0 mm
20:59 10.5 °F /  -11.9 °C -0.7 °F /  -18.2 °C 1024.9 in /  34703.1 hPa WSW 5.6 mph /  9 km/h 5.6 mph /  9 km/h 46 % 0.0 in /  0 mm
21:04 10.8 °F /  -11.8 °C -0.4 °F /  -18 °C 1024.9 in /  34703.1 hPa West 7.4 mph /  11.9 km/h 7.4 mph /  11.9 km/h 46 % 0.0 in /  0 mm
21:09 11.1 °F /  -11.6 °C -0.1 °F /  -17.8 °C 1024.9 in /  34703.1 hPa WSW 5.6 mph /  9 km/h 5.6 mph /  9 km/h 46 % 0.0 in /  0 mm
21:14 11.1 °F /  -11.6 °C -0.1 °F /  -17.8 °C 1024.9 in /  34703.1 hPa SW 3.7 mph /  6 km/h 3.9 mph /  6.3 km/h 46 % 0.0 in /  0 mm
21:19 11.2 °F /  -11.6 °C 0.0 °F /  -17.8 °C 1026.0 in /  34740.4 hPa WNW 7.4 mph /  11.9 km/h 7.4 mph /  11.9 km/h 46 % 0.0 in /  0 mm
21:24 11.1 °F /  -11.6 °C -0.1 °F /  -17.8 °C 1026.0 in /  34740.4 hPa West 3.9 mph /  6.3 km/h 3.9 mph /  6.3 km/h 46 % 0.0 in /  0 mm
21:29 11.1 °F /  -11.6 °C -0.1 °F /  -17.8 °C 1026.0 in /  34740.4 hPa WNW 3.7 mph /  6 km/h 3.7 mph /  6 km/h 46 % 0.0 in /  0 mm
21:35 11.0 °F /  -11.7 °C -0.2 °F /  -17.9 °C 1026.0 in /  34740.4 hPa WSW 5.0 mph /  8 km/h 5.0 mph /  8 km/h 46 % 0.0 in /  0 mm
21:38 11.0 °F /  -11.7 °C -0.2 °F /  -17.9 °C 1026.0 in /  34740.4 hPa West 7.4 mph /  11.9 km/h 7.4 mph /  11.9 km/h 46 % 0.0 in /  0 mm
21:41 11.0 °F /  -11.7 °C -0.2 °F /  -17.9 °C 1026.0 in /  34740.4 hPa WSW 7.4 mph /  11.9 km/h 7.4 mph /  11.9 km/h 46 % 0.0 in /  0 mm
21:43 10.9 °F /  -11.7 °C 0.0 °F /  -17.8 °C 1026.0 in /  34740.4 hPa WSW 6.4 mph /  10.3 km/h 6.4 mph /  10.3 km/h 47 % 0.0 in /  0 mm
21:46 10.8 °F /  -11.8 °C -0.1 °F /  -17.8 °C 1026.0 in /  34740.4 hPa West 7.4 mph /  11.9 km/h 7.4 mph /  11.9 km/h 47 % 0.0 in /  0 mm
21:50 6.7 °F /  -14.1 °C -1.2 °F /  -18.4 °C 1026.0 in /  34740.4 hPa Calm     57 % 0.0 in /  0 mm
21:51 10.7 °F /  -11.8 °C -0.2 °F /  -17.9 °C 1026.0 in /  34740.4 hPa West 5.6 mph /  9 km/h 5.6 mph /  9 km/h 47 % 0.0 in /  0 mm
21:56 10.6 °F /  -11.9 °C -0.3 °F /  -17.9 °C 1026.0 in /  34740.4 hPa West 5.6 mph /  9 km/h 5.6 mph /  9 km/h 47 % 0.0 in /  0 mm
22:00 6.6 °F /  -14.1 °C -1.1 °F /  -18.4 °C 1026.0 in /  34740.4 hPa NW 1.6 mph /  2.6 km/h 1.6 mph /  2.6 km/h 58 % 0.0 in /  0 mm
22:01 10.5 °F /  -11.9 °C -0.3 °F /  -17.9 °C 1026.0 in /  34740.4 hPa WSW 5.8 mph /  9.3 km/h 5.8 mph /  9.3 km/h 47 % 0.0 in /  0 mm
22:05 10.5 °F /  -11.9 °C -0.3 °F /  -17.9 °C 1026.0 in /  34740.4 hPa WSW 7.4 mph /  11.9 km/h 7.4 mph /  11.9 km/h 47 % 0.0 in /  0 mm
22:10 10.4 °F /  -12 °C -0.4 °F /  -18 °C 1026.0 in /  34740.4 hPa West 9.3 mph /  15 km/h 9.3 mph /  15 km/h 47 % 0.0 in /  0 mm
22:11 10.4 °F /  -12 °C -0.4 °F /  -18 °C 1026.0 in /  34740.4 hPa West 5.6 mph /  9 km/h 5.6 mph /  9 km/h 47 % 0.0 in /  0 mm
22:16 10.3 °F /  -12.1 °C -0.2 °F /  -17.9 °C 1026.0 in /  34740.4 hPa South 5.6 mph /  9 km/h 5.6 mph /  9 km/h 48 % 0.0 in /  0 mm
22:19 10.2 °F /  -12.1 °C -0.3 °F /  -17.9 °C 1027.0 in /  34774.2 hPa WNW 3.7 mph /  6 km/h   48 % 0.0 in /  0 mm
22:20 6.2 °F /  -14.3 °C -1.2 °F /  -18.4 °C 1024.9 in /  34703.1 hPa Calm   1.6 mph /  2.6 km/h 59 % 0.0 in /  0 mm
22:21 10.2 °F /  -12.1 °C -0.3 °F /  -17.9 °C 1027.0 in /  34774.2 hPa West 2.6 mph /  4.2 km/h 2.6 mph /  4.2 km/h 48 % 0.0 in /  0 mm
22:22 10.1 °F /  -12.2 °C -0.4 °F /  -18 °C 1027.0 in /  34774.2 hPa SSE 3.7 mph /  6 km/h   48 % 0.0 in /  0 mm
22:25 10.0 °F /  -12.2 °C -0.5 °F /  -18.1 °C 1027.0 in /  34774.2 hPa WNW 1.9 mph /  3.1 km/h 2.3 mph /  3.7 km/h 48 % 0.0 in /  0 mm
22:27 10.0 °F /  -12.2 °C -0.5 °F /  -18.1 °C 1027.0 in /  34774.2 hPa SW 1.9 mph /  3.1 km/h 1.9 mph /  3.1 km/h 48 % 0.0 in /  0 mm
22:28 10.0 °F /  -12.2 °C -0.5 °F /  -18.1 °C 1027.0 in /  34774.2 hPa SSE 1.9 mph /  3.1 km/h 1.9 mph /  3.1 km/h 48 % 0.0 in /  0 mm
22:30 6.2 °F /  -14.3 °C -1.2 °F /  -18.4 °C 1024.9 in /  34703.1 hPa NNE 3.2 mph /  5.1 km/h 3.2 mph /  5.1 km/h 59 % 0.0 in /  0 mm
22:33 9.8 °F /  -12.3 °C -0.7 °F /  -18.2 °C 1027.0 in /  34774.2 hPa North 3.7 mph /  6 km/h 3.7 mph /  6 km/h 48 % 0.0 in /  0 mm
22:34 9.8 °F /  -12.3 °C -0.7 °F /  -18.2 °C 1027.0 in /  34774.2 hPa WSW 4.2 mph /  6.8 km/h 4.2 mph /  6.8 km/h 48 % 0.0 in /  0 mm
22:39 9.7 °F /  -12.4 °C -0.8 °F /  -18.2 °C 1027.0 in /  34774.2 hPa WSW 5.6 mph /  9 km/h 5.6 mph /  9 km/h 48 % 0.0 in /  0 mm
22:40 6.2 °F /  -14.3 °C -1.0 °F /  -18.3 °C 1024.9 in /  34703.1 hPa North 1.6 mph /  2.6 km/h 4.8 mph /  7.7 km/h 60 % 0.0 in /  0 mm
22:44 9.6 °F /  -12.4 °C -0.6 °F /  -18.1 °C 1027.0 in /  34774.2 hPa WSW 3.7 mph /  6 km/h 3.7 mph /  6 km/h 49 % 0.0 in /  0 mm
22:48 9.6 °F /  -12.4 °C -0.6 °F /  -18.1 °C 1027.0 in /  34774.2 hPa West 3.7 mph /  6 km/h 3.9 mph /  6.3 km/h 49 % 0.0 in /  0 mm
22:49 9.5 °F /  -12.5 °C -0.7 °F /  -18.2 °C 1027.0 in /  34774.2 hPa WNW 3.7 mph /  6 km/h 3.7 mph /  6 km/h 49 % 0.0 in /  0 mm
22:50 6.1 °F /  -14.4 °C -1.1 °F /  -18.4 °C 1023.9 in /  34669.3 hPa Calm   3.2 mph /  5.1 km/h 60 % 0.0 in /  0 mm
22:53 9.5 °F /  -12.5 °C -0.7 °F /  -18.2 °C 1027.0 in /  34774.2 hPa South 3.7 mph /  6 km/h 3.7 mph /  6 km/h 49 % 0.0 in /  0 mm
22:58 9.4 °F /  -12.6 °C -0.8 °F /  -18.2 °C 1027.0 in /  34774.2 hPa West 3.7 mph /  6 km/h 3.7 mph /  6 km/h 49 % 0.0 in /  0 mm
23:00 5.9 °F /  -14.5 °C -1.5 °F /  -18.6 °C 1023.9 in /  34669.3 hPa Calm   3.2 mph /  5.1 km/h 59 % 0.0 in /  0 mm
23:03 9.3 °F /  -12.6 °C -0.6 °F /  -18.1 °C 1027.0 in /  34774.2 hPa West 3.7 mph /  6 km/h 3.7 mph /  6 km/h 50 % 0.0 in /  0 mm
23:08 9.2 °F /  -12.7 °C -0.7 °F /  -18.2 °C 1027.0 in /  34774.2 hPa WSW 4.2 mph /  6.8 km/h 4.2 mph /  6.8 km/h 50 % 0.0 in /  0 mm
23:10 5.7 °F /  -14.6 °C -1.4 °F /  -18.6 °C 1023.9 in /  34669.3 hPa Calm     60 % 0.0 in /  0 mm
23:13 9.2 °F /  -12.7 °C -0.7 °F /  -18.2 °C 1027.0 in /  34774.2 hPa South 1.9 mph /  3.1 km/h   50 % 0.0 in /  0 mm
23:18 9.1 °F /  -12.7 °C -0.8 °F /  -18.2 °C 1027.0 in /  34774.2 hPa WSW 1.9 mph /  3.1 km/h   50 % 0.0 in /  0 mm
23:20 5.6 °F /  -14.7 °C -1.6 °F /  -18.7 °C 1023.9 in /  34669.3 hPa NNW 1.6 mph /  2.6 km/h 1.6 mph /  2.6 km/h 60 % 0.0 in /  0 mm
23:23 9.1 °F /  -12.7 °C -0.5 °F /  -18.1 °C 1027.0 in /  34774.2 hPa West 3.7 mph /  6 km/h 3.7 mph /  6 km/h 51 % 0.0 in /  0 mm
23:28 9.2 °F /  -12.7 °C -0.4 °F /  -18 °C 1027.0 in /  34774.2 hPa WSW 1.9 mph /  3.1 km/h 1.9 mph /  3.1 km/h 51 % 0.0 in /  0 mm
23:30 5.5 °F /  -14.7 °C -1.7 °F /  -18.7 °C 1023.9 in /  34669.3 hPa NW 1.6 mph /  2.6 km/h 3.2 mph /  5.1 km/h 60 % 0.0 in /  0 mm
23:33 9.2 °F /  -12.7 °C -0.4 °F /  -18 °C 1027.0 in /  34774.2 hPa WSW 3.7 mph /  6 km/h 3.7 mph /  6 km/h 51 % 0.0 in /  0 mm
23:38 9.2 °F /  -12.7 °C -0.4 °F /  -18 °C 1027.0 in /  34774.2 hPa WSW 3.7 mph /  6 km/h 3.7 mph /  6 km/h 51 % 0.0 in /  0 mm
23:40 5.5 °F /  -14.7 °C -1.7 °F /  -18.7 °C 1023.9 in /  34669.3 hPa NW 1.6 mph /  2.6 km/h 3.2 mph /  5.1 km/h 60 % 0.0 in /  0 mm
23:43 9.3 °F /  -12.6 °C -0.3 °F /  -17.9 °C 1027.0 in /  34774.2 hPa WSW 1.9 mph /  3.1 km/h 1.9 mph /  3.1 km/h 51 % 0.0 in /  0 mm
23:48 9.3 °F /  -12.6 °C -0.3 °F /  -17.9 °C 1026.0 in /  34740.4 hPa Calm     51 % 0.0 in /  0 mm
23:50 5.2 °F /  -14.9 °C -1.7 °F /  -18.7 °C 1024.9 in /  34703.1 hPa WNW 1.6 mph /  2.6 km/h 3.2 mph /  5.1 km/h 61 % 0.0 in /  0 mm
23:53 9.2 °F /  -12.7 °C -0.4 °F /  -18 °C 1026.0 in /  34740.4 hPa WSW 1.9 mph /  3.1 km/h 1.9 mph /  3.1 km/h 51 % 0.0 in /  0 mm
23:58 9.2 °F /  -12.7 °C -0.4 °F /  -18 °C 1026.0 in /  34740.4 hPa WSW 3.7 mph /  6 km/h   51 % 0.0 in /  0 mm
Meteo Sesrovires
Elogis d' Weather Underground - 3.25 mb

Guio original per  Jim McMurry - jmcmurry@mwt.net Adaptat per a la plantilla per  Wim van der Kuil - Leuven-Template.eu

Trobareu la nostra informacio del temps tambe a:

Weather Underground

AWEKAS